sensor_id;sensor_type;location;lat;lon;timestamp;pressure;altitude;pressure_sealevel;temperature;humidity
74552;BME280;63025;55.472;38.432;2023-05-19T00:01:14;100737.34;;;15.34;71.35
74552;BME280;63025;55.472;38.432;2023-05-19T00:03:50;100746.28;;;15.34;71.67
74552;BME280;63025;55.472;38.432;2023-05-19T00:06:24;100754.84;;;15.31;71.68
74552;BME280;63025;55.472;38.432;2023-05-19T00:09:08;100753.19;;;15.30;71.80
74552;BME280;63025;55.472;38.432;2023-05-19T00:11:35;100751.75;;;15.28;71.55
74552;BME280;63025;55.472;38.432;2023-05-19T00:14:03;100750.78;;;15.22;71.82
74552;BME280;63025;55.472;38.432;2023-05-19T00:16:30;100740.38;;;15.19;71.63
74552;BME280;63025;55.472;38.432;2023-05-19T00:19:01;100753.31;;;15.17;71.93
74552;BME280;63025;55.472;38.432;2023-05-19T00:21:28;100745.44;;;15.16;71.94
74552;BME280;63025;55.472;38.432;2023-05-19T00:23:54;100754.81;;;15.13;72.21
74552;BME280;63025;55.472;38.432;2023-05-19T00:26:21;100756.69;;;15.13;72.53
74552;BME280;63025;55.472;38.432;2023-05-19T00:28:58;100764.22;;;15.11;72.40
74552;BME280;63025;55.472;38.432;2023-05-19T00:31:24;100758.78;;;15.11;72.70
74552;BME280;63025;55.472;38.432;2023-05-19T00:33:49;100767.97;;;15.10;72.49
74552;BME280;63025;55.472;38.432;2023-05-19T00:36:16;100763.81;;;15.07;72.84
74552;BME280;63025;55.472;38.432;2023-05-19T00:38:42;100761.56;;;15.04;72.67
74552;BME280;63025;55.472;38.432;2023-05-19T00:41:08;100763.22;;;15.05;72.46
74552;BME280;63025;55.472;38.432;2023-05-19T00:43:34;100766.16;;;15.03;73.09
74552;BME280;63025;55.472;38.432;2023-05-19T00:46:00;100765.31;;;15.03;73.36
74552;BME280;63025;55.472;38.432;2023-05-19T00:48:26;100770.13;;;15.01;73.72
74552;BME280;63025;55.472;38.432;2023-05-19T00:50:54;100775.09;;;15.04;74.02
74552;BME280;63025;55.472;38.432;2023-05-19T00:53:22;100774.06;;;15.05;74.07
74552;BME280;63025;55.472;38.432;2023-05-19T00:55:49;100773.22;;;15.04;74.13
74552;BME280;63025;55.472;38.432;2023-05-19T00:58:15;100768.88;;;15.03;74.39
74552;BME280;63025;55.472;38.432;2023-05-19T01:00:42;100768.66;;;15.05;74.40
74552;BME280;63025;55.472;38.432;2023-05-19T01:03:08;100760.75;;;15.03;74.56
74552;BME280;63025;55.472;38.432;2023-05-19T01:05:40;100770.53;;;15.04;74.42
74552;BME280;63025;55.472;38.432;2023-05-19T01:08:07;100766.16;;;15.03;74.43
74552;BME280;63025;55.472;38.432;2023-05-19T01:10:33;100765.53;;;15.01;74.61
74552;BME280;63025;55.472;38.432;2023-05-19T01:13:00;100768.03;;;15.03;74.71
74552;BME280;63025;55.472;38.432;2023-05-19T01:15:27;100768.88;;;15.03;74.96
74552;BME280;63025;55.472;38.432;2023-05-19T01:20:39;100767.91;;;15.16;74.78
74552;BME280;63025;55.472;38.432;2023-05-19T01:31:05;100773.53;;;15.39;74.25
74552;BME280;63025;55.472;38.432;2023-05-19T01:33:32;100771.81;;;15.45;74.19
74552;BME280;63025;55.472;38.432;2023-05-19T01:35:59;100773.84;;;15.50;74.06
74552;BME280;63025;55.472;38.432;2023-05-19T01:38:29;100773.22;;;15.54;74.09
74552;BME280;63025;55.472;38.432;2023-05-19T01:40:59;100777.38;;;15.57;74.02
74552;BME280;63025;55.472;38.432;2023-05-19T01:43:26;100776.28;;;15.58;74.01
74552;BME280;63025;55.472;38.432;2023-05-19T01:45:52;100776.06;;;15.59;74.15
74552;BME280;63025;55.472;38.432;2023-05-19T01:48:21;100776.47;;;15.63;74.29
74552;BME280;63025;55.472;38.432;2023-05-19T01:50:47;100790.75;;;15.70;74.17
74552;BME280;63025;55.472;38.432;2023-05-19T01:53:14;100785.50;;;15.75;74.12
74552;BME280;63025;55.472;38.432;2023-05-19T01:55:50;100792.13;;;15.79;74.20
74552;BME280;63025;55.472;38.432;2023-05-19T01:58:42;100793.72;;;15.87;73.94
74552;BME280;63025;55.472;38.432;2023-05-19T02:01:29;100791.38;;;15.90;73.98
74552;BME280;63025;55.472;38.432;2023-05-19T02:07:00;100787.16;;;15.94;73.62
74552;BME280;63025;55.472;38.432;2023-05-19T02:12:35;100791.59;;;16.07;73.64
74552;BME280;63025;55.472;38.432;2023-05-19T02:15:24;100797.25;;;16.05;73.78
74552;BME280;63025;55.472;38.432;2023-05-19T02:17:52;100794.53;;;16.05;73.77
74552;BME280;63025;55.472;38.432;2023-05-19T02:20:39;100798.59;;;16.14;73.64
74552;BME280;63025;55.472;38.432;2023-05-19T02:23:06;100798.59;;;16.14;73.54
74552;BME280;63025;55.472;38.432;2023-05-19T02:25:33;100796.72;;;16.15;73.80
74552;BME280;63025;55.472;38.432;2023-05-19T02:27:59;100796.84;;;16.20;73.53
74552;BME280;63025;55.472;38.432;2023-05-19T02:30:29;100796.41;;;16.23;73.45
74552;BME280;63025;55.472;38.432;2023-05-19T02:32:59;100799.72;;;16.25;73.65
74552;BME280;63025;55.472;38.432;2023-05-19T02:35:25;100801.16;;;16.28;73.58
74552;BME280;63025;55.472;38.432;2023-05-19T02:37:52;100794.66;;;16.29;73.62
74552;BME280;63025;55.472;38.432;2023-05-19T02:40:18;100799.94;;;16.24;73.78
74552;BME280;63025;55.472;38.432;2023-05-19T02:42:44;100806.63;;;16.21;73.90
74552;BME280;63025;55.472;38.432;2023-05-19T02:45:10;100801.38;;;16.26;73.64
74552;BME280;63025;55.472;38.432;2023-05-19T02:47:39;100804.97;;;16.20;73.74
74552;BME280;63025;55.472;38.432;2023-05-19T02:50:06;100803.84;;;16.09;74.27
74552;BME280;63025;55.472;38.432;2023-05-19T02:52:32;100814.19;;;16.01;74.31
74552;BME280;63025;55.472;38.432;2023-05-19T02:54:59;100816.69;;;16.02;74.32
74552;BME280;63025;55.472;38.432;2023-05-19T02:57:25;100815.50;;;15.98;74.38
74552;BME280;63025;55.472;38.432;2023-05-19T02:59:51;100817.72;;;16.01;74.29
74552;BME280;63025;55.472;38.432;2023-05-19T03:02:17;100816.22;;;16.05;74.09
74552;BME280;63025;55.472;38.432;2023-05-19T03:04:43;100824.28;;;16.12;74.14
74552;BME280;63025;55.472;38.432;2023-05-19T03:07:10;100823.22;;;16.13;73.98
74552;BME280;63025;55.472;38.432;2023-05-19T03:09:38;100829.47;;;16.13;73.71
74552;BME280;63025;55.472;38.432;2023-05-19T03:12:05;100828.44;;;16.14;73.56
74552;BME280;63025;55.472;38.432;2023-05-19T03:14:33;100840.19;;;16.08;73.36
74552;BME280;63025;55.472;38.432;2023-05-19T03:17:02;100832.94;;;16.02;73.28
74552;BME280;63025;55.472;38.432;2023-05-19T03:19:28;100832.56;;;15.99;73.03
74552;BME280;63025;55.472;38.432;2023-05-19T03:21:57;100841.81;;;15.91;73.57
74552;BME280;63025;55.472;38.432;2023-05-19T03:24:23;100836.88;;;15.88;73.67
74552;BME280;63025;55.472;38.432;2023-05-19T03:26:49;100845.22;;;15.87;73.49
74552;BME280;63025;55.472;38.432;2023-05-19T03:29:16;100844.63;;;15.85;73.43
74552;BME280;63025;55.472;38.432;2023-05-19T03:31:42;100843.78;;;15.84;73.49
74552;BME280;63025;55.472;38.432;2023-05-19T03:34:08;100842.88;;;15.90;73.43
74552;BME280;63025;55.472;38.432;2023-05-19T03:36:34;100838.16;;;15.86;73.49
74552;BME280;63025;55.472;38.432;2023-05-19T03:39:08;100853.81;;;15.84;73.34
74552;BME280;63025;55.472;38.432;2023-05-19T03:41:34;100844.44;;;15.79;73.63
74552;BME280;63025;55.472;38.432;2023-05-19T03:44:01;100845.50;;;15.78;73.28
74552;BME280;63025;55.472;38.432;2023-05-19T03:46:27;100850.25;;;15.83;73.17
74552;BME280;63025;55.472;38.432;2023-05-19T03:49:19;100850.56;;;15.75;72.87
74552;BME280;63025;55.472;38.432;2023-05-19T03:52:03;100859.44;;;15.82;72.73
74552;BME280;63025;55.472;38.432;2023-05-19T03:54:35;100850.09;;;15.78;72.76
74552;BME280;63025;55.472;38.432;2023-05-19T03:57:01;100847.44;;;15.71;72.85
74552;BME280;63025;55.472;38.432;2023-05-19T03:59:27;100858.84;;;15.80;72.56
74552;BME280;63025;55.472;38.432;2023-05-19T04:01:53;100849.63;;;15.63;72.50
74552;BME280;63025;55.472;38.432;2023-05-19T04:04:18;100850.00;;;15.66;72.19
74552;BME280;63025;55.472;38.432;2023-05-19T04:06:46;100858.16;;;15.66;72.18
74552;BME280;63025;55.472;38.432;2023-05-19T04:09:14;100867.97;;;15.61;72.16
74552;BME280;63025;55.472;38.432;2023-05-19T04:11:41;100868.41;;;15.58;71.76
74552;BME280;63025;55.472;38.432;2023-05-19T04:14:07;100876.69;;;15.38;71.57
74552;BME280;63025;55.472;38.432;2023-05-19T04:16:34;100870.72;;;15.29;71.36
74552;BME280;63025;55.472;38.432;2023-05-19T04:19:01;100869.59;;;15.12;71.64
74552;BME280;63025;55.472;38.432;2023-05-19T04:21:27;100882.09;;;15.13;71.45
74552;BME280;63025;55.472;38.432;2023-05-19T04:23:54;100883.97;;;15.13;71.28
74552;BME280;63025;55.472;38.432;2023-05-19T04:26:20;100877.16;;;15.03;71.17
74552;BME280;63025;55.472;38.432;2023-05-19T04:28:47;100888.56;;;15.05;70.89
74552;BME280;63025;55.472;38.432;2023-05-19T04:31:13;100889.03;;;15.02;70.42
74552;BME280;63025;55.472;38.432;2023-05-19T04:33:40;100895.50;;;15.01;69.90
74552;BME280;63025;55.472;38.432;2023-05-19T04:36:07;100901.06;;;15.06;70.00
74552;BME280;63025;55.472;38.432;2023-05-19T04:38:37;100896.75;;;14.99;69.67
74552;BME280;63025;55.472;38.432;2023-05-19T04:41:05;100896.69;;;15.05;69.71
74552;BME280;63025;55.472;38.432;2023-05-19T04:43:36;100898.34;;;15.06;69.19
74552;BME280;63025;55.472;38.432;2023-05-19T04:46:07;100905.34;;;15.21;68.84
74552;BME280;63025;55.472;38.432;2023-05-19T04:48:36;100904.78;;;15.12;68.85
74552;BME280;63025;55.472;38.432;2023-05-19T04:51:02;100903.81;;;15.00;69.17
74552;BME280;63025;55.472;38.432;2023-05-19T04:53:29;100908.41;;;14.99;69.24
74552;BME280;63025;55.472;38.432;2023-05-19T04:55:56;100911.31;;;14.98;69.04
74552;BME280;63025;55.472;38.432;2023-05-19T04:58:22;100911.78;;;14.95;68.68
74552;BME280;63025;55.472;38.432;2023-05-19T05:00:51;100913.19;;;15.04;68.43
74552;BME280;63025;55.472;38.432;2023-05-19T05:03:17;100914.19;;;15.10;68.49
74552;BME280;63025;55.472;38.432;2023-05-19T05:05:43;100914.84;;;15.05;68.33
74552;BME280;63025;55.472;38.432;2023-05-19T05:08:10;100924.28;;;14.89;68.25
74552;BME280;63025;55.472;38.432;2023-05-19T05:10:40;100923.88;;;14.86;68.81
74552;BME280;63025;55.472;38.432;2023-05-19T05:13:06;100918.72;;;14.84;68.77
74552;BME280;63025;55.472;38.432;2023-05-19T05:15:32;100925.38;;;14.82;68.81
74552;BME280;63025;55.472;38.432;2023-05-19T05:18:01;100923.97;;;14.73;69.05
74552;BME280;63025;55.472;38.432;2023-05-19T05:20:27;100921.00;;;14.81;68.53
74552;BME280;63025;55.472;38.432;2023-05-19T05:22:53;100927.56;;;14.98;68.57
74552;BME280;63025;55.472;38.432;2023-05-19T05:25:20;100928.81;;;14.95;68.16
74552;BME280;63025;55.472;38.432;2023-05-19T05:27:47;100941.56;;;14.95;67.76
74552;BME280;63025;55.472;38.432;2023-05-19T05:30:13;100925.53;;;14.93;67.37
74552;BME280;63025;55.472;38.432;2023-05-19T05:32:39;100939.66;;;14.95;67.10
74552;BME280;63025;55.472;38.432;2023-05-19T05:35:12;100948.19;;;14.99;66.87
74552;BME280;63025;55.472;38.432;2023-05-19T05:37:39;100945.06;;;15.02;66.56
74552;BME280;63025;55.472;38.432;2023-05-19T05:40:05;100945.44;;;15.05;66.40
74552;BME280;63025;55.472;38.432;2023-05-19T05:42:32;100957.19;;;14.93;66.44
74552;BME280;63025;55.472;38.432;2023-05-19T05:44:58;100955.09;;;14.95;66.51
74552;BME280;63025;55.472;38.432;2023-05-19T05:47:25;100956.31;;;14.99;66.30
74552;BME280;63025;55.472;38.432;2023-05-19T05:49:51;100948.44;;;14.91;66.36
74552;BME280;63025;55.472;38.432;2023-05-19T05:52:17;100958.47;;;14.84;67.00
74552;BME280;63025;55.472;38.432;2023-05-19T05:54:46;100964.88;;;14.89;67.22
74552;BME280;63025;55.472;38.432;2023-05-19T05:57:15;100965.97;;;14.75;67.70
74552;BME280;63025;55.472;38.432;2023-05-19T05:59:42;100968.69;;;14.75;67.59
74552;BME280;63025;55.472;38.432;2023-05-19T06:02:10;100968.47;;;14.83;67.46
74552;BME280;63025;55.472;38.432;2023-05-19T06:04:37;100969.72;;;14.81;67.53
74552;BME280;63025;55.472;38.432;2023-05-19T06:07:04;100976.78;;;14.82;67.64
74552;BME280;63025;55.472;38.432;2023-05-19T06:09:34;100973.25;;;14.75;67.45
74552;BME280;63025;55.472;38.432;2023-05-19T06:12:01;100972.66;;;14.73;67.60
74552;BME280;63025;55.472;38.432;2023-05-19T06:14:34;100977.63;;;14.76;67.48
74552;BME280;63025;55.472;38.432;2023-05-19T06:17:31;100981.38;;;14.75;66.55
74552;BME280;63025;55.472;38.432;2023-05-19T06:20:04;100975.38;;;14.73;66.41
74552;BME280;63025;55.472;38.432;2023-05-19T06:22:31;100984.72;;;14.77;66.02
74552;BME280;63025;55.472;38.432;2023-05-19T06:24:57;100984.03;;;14.88;66.05
74552;BME280;63025;55.472;38.432;2023-05-19T06:27:23;100987.56;;;14.95;65.43
74552;BME280;63025;55.472;38.432;2023-05-19T06:29:49;100984.63;;;15.03;65.44
74552;BME280;63025;55.472;38.432;2023-05-19T06:32:15;100981.75;;;14.85;65.47
74552;BME280;63025;55.472;38.432;2023-05-19T06:34:41;100985.50;;;14.90;65.43
74552;BME280;63025;55.472;38.432;2023-05-19T06:37:07;100993.03;;;14.82;65.80
74552;BME280;63025;55.472;38.432;2023-05-19T06:39:33;100993.66;;;14.77;66.14
74552;BME280;63025;55.472;38.432;2023-05-19T06:42:00;100994.63;;;14.96;66.24
74552;BME280;63025;55.472;38.432;2023-05-19T06:44:44;101003.44;;;14.78;66.25
74552;BME280;63025;55.472;38.432;2023-05-19T06:47:11;100996.13;;;14.85;65.64
74552;BME280;63025;55.472;38.432;2023-05-19T06:49:37;101006.34;;;14.83;66.01
74552;BME280;63025;55.472;38.432;2023-05-19T06:52:03;101004.28;;;14.79;65.72
74552;BME280;63025;55.472;38.432;2023-05-19T06:54:29;101008.78;;;14.98;65.63
74552;BME280;63025;55.472;38.432;2023-05-19T06:56:56;101007.50;;;15.07;65.35
74552;BME280;63025;55.472;38.432;2023-05-19T06:59:22;101009.72;;;15.17;65.06
74552;BME280;63025;55.472;38.432;2023-05-19T07:01:49;100998.31;;;15.08;64.43
74552;BME280;63025;55.472;38.432;2023-05-19T07:04:16;101015.41;;;15.15;64.00
74552;BME280;63025;55.472;38.432;2023-05-19T07:06:43;101016.41;;;15.21;63.66
74552;BME280;63025;55.472;38.432;2023-05-19T07:09:08;101012.44;;;15.17;62.96
74552;BME280;63025;55.472;38.432;2023-05-19T07:11:35;101019.47;;;15.31;62.50
74552;BME280;63025;55.472;38.432;2023-05-19T07:14:01;101014.72;;;15.20;62.07
74552;BME280;63025;55.472;38.432;2023-05-19T07:16:30;101025.81;;;15.12;62.08
74552;BME280;63025;55.472;38.432;2023-05-19T07:18:55;101028.69;;;15.23;62.01
74552;BME280;63025;55.472;38.432;2023-05-19T07:21:21;101022.59;;;15.34;61.96
74552;BME280;63025;55.472;38.432;2023-05-19T07:23:48;101024.00;;;15.37;61.76
74552;BME280;63025;55.472;38.432;2023-05-19T07:26:14;101019.50;;;15.24;61.48
74552;BME280;63025;55.472;38.432;2023-05-19T07:28:40;101028.22;;;15.26;61.78
74552;BME280;63025;55.472;38.432;2023-05-19T07:31:08;101024.94;;;15.24;61.85
74552;BME280;63025;55.472;38.432;2023-05-19T07:33:33;101028.69;;;15.23;61.29
74552;BME280;63025;55.472;38.432;2023-05-19T07:35:59;101027.09;;;14.96;61.29
74552;BME280;63025;55.472;38.432;2023-05-19T07:38:25;101032.53;;;14.96;61.56
74552;BME280;63025;55.472;38.432;2023-05-19T07:40:53;101033.81;;;14.93;61.54
74552;BME280;63025;55.472;38.432;2023-05-19T07:43:18;101031.31;;;14.92;61.55
74552;BME280;63025;55.472;38.432;2023-05-19T07:45:44;101039.59;;;14.97;62.16
74552;BME280;63025;55.472;38.432;2023-05-19T07:48:10;101040.88;;;14.88;61.82
74552;BME280;63025;55.472;38.432;2023-05-19T07:50:36;101038.00;;;14.76;61.93
74552;BME280;63025;55.472;38.432;2023-05-19T07:53:02;101043.88;;;14.73;62.20
74552;BME280;63025;55.472;38.432;2023-05-19T07:55:28;101041.16;;;14.66;62.89
74552;BME280;63025;55.472;38.432;2023-05-19T07:57:53;101036.56;;;14.67;62.83
74552;BME280;63025;55.472;38.432;2023-05-19T08:00:19;101035.72;;;14.80;62.88
74552;BME280;63025;55.472;38.432;2023-05-19T08:02:45;101041.94;;;14.87;63.15
74552;BME280;63025;55.472;38.432;2023-05-19T08:05:11;101045.69;;;14.86;63.06
74552;BME280;63025;55.472;38.432;2023-05-19T08:07:37;101053.78;;;14.86;62.67
74552;BME280;63025;55.472;38.432;2023-05-19T08:10:03;101041.72;;;14.95;62.75
74552;BME280;63025;55.472;38.432;2023-05-19T08:12:30;101050.22;;;15.05;62.82
74552;BME280;63025;55.472;38.432;2023-05-19T08:14:56;101049.56;;;15.10;62.49
74552;BME280;63025;55.472;38.432;2023-05-19T08:17:22;101048.97;;;15.01;62.42
74552;BME280;63025;55.472;38.432;2023-05-19T08:19:48;101047.91;;;15.09;62.11
74552;BME280;63025;55.472;38.432;2023-05-19T08:22:14;101048.31;;;15.05;61.91
74552;BME280;63025;55.472;38.432;2023-05-19T08:24:40;101053.91;;;15.17;61.68
74552;BME280;63025;55.472;38.432;2023-05-19T08:27:07;101053.31;;;15.15;61.52
74552;BME280;63025;55.472;38.432;2023-05-19T08:29:33;101044.09;;;15.23;61.48
74552;BME280;63025;55.472;38.432;2023-05-19T08:31:59;101048.63;;;15.35;61.12
74552;BME280;63025;55.472;38.432;2023-05-19T08:34:27;101053.94;;;15.49;61.12
74552;BME280;63025;55.472;38.432;2023-05-19T08:36:53;101061.28;;;15.41;60.96
74552;BME280;63025;55.472;38.432;2023-05-19T08:39:22;101054.41;;;15.46;60.63
74552;BME280;63025;55.472;38.432;2023-05-19T08:41:54;101068.53;;;15.48;60.66
74552;BME280;63025;55.472;38.432;2023-05-19T08:44:20;101060.22;;;15.56;60.56
74552;BME280;63025;55.472;38.432;2023-05-19T08:46:46;101068.03;;;15.77;60.34
74552;BME280;63025;55.472;38.432;2023-05-19T08:49:13;101057.69;;;15.92;59.95
74552;BME280;63025;55.472;38.432;2023-05-19T08:51:54;101049.22;;;16.07;59.19
74552;BME280;63025;55.472;38.432;2023-05-19T08:54:24;101054.00;;;16.36;59.07
74552;BME280;63025;55.472;38.432;2023-05-19T08:56:54;101057.41;;;16.50;58.41
74552;BME280;63025;55.472;38.432;2023-05-19T08:59:20;101058.47;;;16.49;57.98
74552;BME280;63025;55.472;38.432;2023-05-19T09:01:48;101049.84;;;16.52;57.90
74552;BME280;63025;55.472;38.432;2023-05-19T09:04:15;101053.91;;;16.43;57.87
74552;BME280;63025;55.472;38.432;2023-05-19T09:06:41;101040.63;;;16.60;57.75
74552;BME280;63025;55.472;38.432;2023-05-19T09:09:09;101056.94;;;16.53;57.48
74552;BME280;63025;55.472;38.432;2023-05-19T09:11:35;101041.31;;;16.73;57.46
74552;BME280;63025;55.472;38.432;2023-05-19T09:14:05;101050.25;;;16.99;57.18
74552;BME280;63025;55.472;38.432;2023-05-19T09:16:31;101048.56;;;17.16;56.78
74552;BME280;63025;55.472;38.432;2023-05-19T09:18:58;101045.53;;;17.24;56.50
74552;BME280;63025;55.472;38.432;2023-05-19T09:21:29;101046.47;;;17.48;56.06
74552;BME280;63025;55.472;38.432;2023-05-19T09:24:05;101049.56;;;17.51;55.91
74552;BME280;63025;55.472;38.432;2023-05-19T09:26:38;101055.94;;;17.27;55.57
74552;BME280;63025;55.472;38.432;2023-05-19T09:29:14;101054.50;;;17.24;55.93
74552;BME280;63025;55.472;38.432;2023-05-19T09:31:51;101055.91;;;17.45;55.74
74552;BME280;63025;55.472;38.432;2023-05-19T09:34:19;101043.75;;;17.48;54.94
74552;BME280;63025;55.472;38.432;2023-05-19T09:36:49;101035.75;;;17.53;54.55
74552;BME280;63025;55.472;38.432;2023-05-19T09:39:20;101036.53;;;17.72;54.61
74552;BME280;63025;55.472;38.432;2023-05-19T09:41:51;101045.88;;;17.76;54.27
74552;BME280;63025;55.472;38.432;2023-05-19T09:44:25;101041.84;;;17.48;53.77
74552;BME280;63025;55.472;38.432;2023-05-19T09:46:55;101037.16;;;17.55;54.04
74552;BME280;63025;55.472;38.432;2023-05-19T09:49:27;101045.03;;;17.64;54.40
74552;BME280;63025;55.472;38.432;2023-05-19T09:51:55;101029.28;;;17.66;53.64
74552;BME280;63025;55.472;38.432;2023-05-19T09:54:21;101039.13;;;17.48;53.78
74552;BME280;63025;55.472;38.432;2023-05-19T09:57:03;101029.78;;;17.44;54.09
74552;BME280;63025;55.472;38.432;2023-05-19T09:59:29;101030.47;;;17.40;53.88
74552;BME280;63025;55.472;38.432;2023-05-19T10:01:57;101035.13;;;17.51;53.57
74552;BME280;63025;55.472;38.432;2023-05-19T10:04:25;101042.13;;;17.58;53.44
74552;BME280;63025;55.472;38.432;2023-05-19T10:06:56;101019.88;;;17.50;53.14
74552;BME280;63025;55.472;38.432;2023-05-19T10:09:26;101033.91;;;17.65;53.27
74552;BME280;63025;55.472;38.432;2023-05-19T10:11:56;101032.75;;;17.73;53.02
74552;BME280;63025;55.472;38.432;2023-05-19T10:14:24;101024.75;;;17.59;53.31
74552;BME280;63025;55.472;38.432;2023-05-19T10:16:51;101031.34;;;17.70;53.22
74552;BME280;63025;55.472;38.432;2023-05-19T10:19:22;101029.00;;;17.74;53.43
74552;BME280;63025;55.472;38.432;2023-05-19T10:21:48;101028.47;;;17.65;53.52
74552;BME280;63025;55.472;38.432;2023-05-19T10:24:14;101030.38;;;17.65;53.51
74552;BME280;63025;55.472;38.432;2023-05-19T10:26:44;101034.81;;;17.59;53.39
74552;BME280;63025;55.472;38.432;2023-05-19T10:29:22;101027.44;;;17.78;53.40
74552;BME280;63025;55.472;38.432;2023-05-19T10:31:50;101025.38;;;18.03;52.70
74552;BME280;63025;55.472;38.432;2023-05-19T10:36:48;101025.47;;;17.96;51.97
74552;BME280;63025;55.472;38.432;2023-05-19T10:39:27;101029.38;;;17.89;52.44
74552;BME280;63025;55.472;38.432;2023-05-19T10:45:21;101039.47;;;18.23;51.03
74552;BME280;63025;55.472;38.432;2023-05-19T10:47:53;101030.34;;;18.29;49.76
74552;BME280;63025;55.472;38.432;2023-05-19T10:50:19;101021.03;;;18.37;48.98
74552;BME280;63025;55.472;38.432;2023-05-19T10:52:52;101025.16;;;18.86;48.42
74552;BME280;63025;55.472;38.432;2023-05-19T10:55:51;101023.22;;;19.84;47.00
74552;BME280;63025;55.472;38.432;2023-05-19T10:58:57;101010.25;;;20.79;44.15
74552;BME280;63025;55.472;38.432;2023-05-19T11:01:29;101006.22;;;20.82;42.90
74552;BME280;63025;55.472;38.432;2023-05-19T11:03:55;101013.09;;;21.06;43.25
74552;BME280;63025;55.472;38.432;2023-05-19T11:06:29;101013.03;;;21.23;43.29
74552;BME280;63025;55.472;38.432;2023-05-19T11:08:58;101000.09;;;21.18;42.50
74552;BME280;63025;55.472;38.432;2023-05-19T11:11:26;101007.22;;;21.19;42.60
74552;BME280;63025;55.472;38.432;2023-05-19T11:13:53;101016.00;;;21.00;42.15
74552;BME280;63025;55.472;38.432;2023-05-19T11:16:31;101000.59;;;20.72;42.54
74552;BME280;63025;55.472;38.432;2023-05-19T11:19:00;101009.78;;;21.26;42.79
74552;BME280;63025;55.472;38.432;2023-05-19T11:21:48;101017.16;;;21.26;42.06
74552;BME280;63025;55.472;38.432;2023-05-19T11:27:36;101016.63;;;20.46;42.40
74552;BME280;63025;55.472;38.432;2023-05-19T11:32:34;101027.31;;;19.98;43.25
74552;BME280;63025;55.472;38.432;2023-05-19T11:35:01;101023.34;;;20.56;43.48
74552;BME280;63025;55.472;38.432;2023-05-19T11:37:32;101028.09;;;21.26;41.23
74552;BME280;63025;55.472;38.432;2023-05-19T11:40:04;101020.03;;;21.94;39.80
74552;BME280;63025;55.472;38.432;2023-05-19T11:42:33;101016.72;;;22.61;38.14
74552;BME280;63025;55.472;38.432;2023-05-19T11:44:59;101013.03;;;22.88;37.37
74552;BME280;63025;55.472;38.432;2023-05-19T11:47:26;101018.16;;;23.31;37.01
74552;BME280;63025;55.472;38.432;2023-05-19T11:49:55;101013.03;;;23.65;36.04
74552;BME280;63025;55.472;38.432;2023-05-19T11:52:22;101009.22;;;24.37;35.10
74552;BME280;63025;55.472;38.432;2023-05-19T11:54:48;101015.53;;;24.23;34.95
74552;BME280;63025;55.472;38.432;2023-05-19T11:57:14;101010.00;;;23.62;35.34
74552;BME280;63025;55.472;38.432;2023-05-19T11:59:40;101008.13;;;22.95;35.64
74552;BME280;63025;55.472;38.432;2023-05-19T12:02:22;101011.03;;;22.73;35.40
74552;BME280;63025;55.472;38.432;2023-05-19T12:04:53;101007.69;;;22.24;35.13
74552;BME280;63025;55.472;38.432;2023-05-19T12:07:21;101015.25;;;22.12;36.01
74552;BME280;63025;55.472;38.432;2023-05-19T12:09:49;101010.03;;;22.42;35.77
74552;BME280;63025;55.472;38.432;2023-05-19T12:12:18;101014.19;;;22.55;36.23
74552;BME280;63025;55.472;38.432;2023-05-19T12:14:51;101005.84;;;22.77;35.51
74552;BME280;63025;55.472;38.432;2023-05-19T12:17:20;101008.69;;;22.50;35.99
74552;BME280;63025;55.472;38.432;2023-05-19T12:19:48;101017.94;;;22.39;36.57
74552;BME280;63025;55.472;38.432;2023-05-19T12:22:16;101018.50;;;22.41;36.64
74552;BME280;63025;55.472;38.432;2023-05-19T12:24:42;101016.47;;;22.21;36.46
74552;BME280;63025;55.472;38.432;2023-05-19T12:27:10;101019.72;;;21.91;36.75
74552;BME280;63025;55.472;38.432;2023-05-19T12:29:39;101020.69;;;21.75;36.69
74552;BME280;63025;55.472;38.432;2023-05-19T12:32:08;101024.69;;;21.40;36.42
74552;BME280;63025;55.472;38.432;2023-05-19T12:34:38;101023.13;;;21.22;36.87
74552;BME280;63025;55.472;38.432;2023-05-19T12:37:04;101027.88;;;21.10;37.22
74552;BME280;63025;55.472;38.432;2023-05-19T12:39:31;101023.13;;;21.22;37.19
74552;BME280;63025;55.472;38.432;2023-05-19T12:42:06;101025.84;;;21.01;37.29
74552;BME280;63025;55.472;38.432;2023-05-19T12:44:36;101025.78;;;21.17;37.48
74552;BME280;63025;55.472;38.432;2023-05-19T12:47:06;101025.03;;;21.44;36.89
74552;BME280;63025;55.472;38.432;2023-05-19T12:49:32;101028.22;;;21.89;36.60
74552;BME280;63025;55.472;38.432;2023-05-19T12:52:00;101035.00;;;22.14;36.07
74552;BME280;63025;55.472;38.432;2023-05-19T12:54:32;101024.19;;;22.29;35.76
74552;BME280;63025;55.472;38.432;2023-05-19T12:56:58;101015.41;;;22.27;35.36
74552;BME280;63025;55.472;38.432;2023-05-19T12:59:24;101019.22;;;22.26;36.04
74552;BME280;63025;55.472;38.432;2023-05-19T13:01:57;101025.81;;;21.66;35.89
74552;BME280;63025;55.472;38.432;2023-05-19T13:04:23;101020.00;;;21.36;36.08
74552;BME280;63025;55.472;38.432;2023-05-19T13:06:49;101025.53;;;21.19;36.99
74552;BME280;63025;55.472;38.432;2023-05-19T13:09:16;101025.84;;;21.01;37.13
74552;BME280;63025;55.472;38.432;2023-05-19T13:11:42;101014.84;;;20.74;36.73
74552;BME280;63025;55.472;38.432;2023-05-19T13:14:09;101015.16;;;20.56;37.14
74552;BME280;63025;55.472;38.432;2023-05-19T13:16:35;101022.38;;;20.45;37.25